Time;durP1;ratioP1;P1;durP2;ratioP2;P2;SDS_P1;SDS_P2;PMS_P1;PMS_P2;Temp;Humidity;BMP_temperature;BMP_pressure;BME280_temperature;BME280_humidity;BME280_pressure;Samples;Min_cycle;Max_cycle;Signal;HPM_P1;HPM_P2
2022/05/13 10:21:12;;;;;;;;;3.00;2.80;;;;;22.01;49.50;102362.47;5274115;22;46081;-93
2022/05/13 10:27:10;;;;;;;;;2.00;2.00;;;;;21.44;49.42;102262.13;4999101;28;45737;-92
2022/05/13 10:38:41;;;;;;;;;4.00;4.00;;;;;21.72;50.23;102289.31;5612610;22;46874;-92
2022/05/13 10:41:30;;;;;;;;;5.20;5.00;;;;;21.44;50.66;102248.63;4982835;28;45527;-94
2022/05/13 10:44:20;;;;;;;;;5.60;4.40;;;;;22.21;50.00;102367.91;4974363;28;45506;-91
2022/05/13 10:46:52;;;;;;;;;7.20;7.20;;;;;21.87;50.35;102294.31;4975296;28;46696;-93
2022/05/13 10:49:18;;;;;;;;;11.00;10.60;;;;;21.75;50.84;102253.94;4955565;28;46972;-90
2022/05/13 10:55:13;;;;;;;;;14.40;12.60;;;;;21.55;50.96;102217.97;5028698;28;45475;-94
2022/05/13 10:58:00;;;;;;;;;23.20;19.80;;;;;22.37;51.43;102349.28;4964463;28;45459;-95
2022/05/13 11:00:58;;;;;;;;;14.40;11.00;;;;;22.40;51.23;102346.28;4978241;28;46815;-95
2022/05/13 11:04:04;;;;;;;;;11.00;10.40;;;;;22.41;51.18;102342.59;4970138;28;45501;-93
2022/05/13 11:06:58;;;;;;;;;;;;;;;;;;;;;
2022/05/13 11:10:03;;;;;;;;;18.20;14.20;;;;;22.49;51.61;102339.16;4975372;28;69107;-95
2022/05/13 11:12:41;;;;;;;;;5.00;5.00;;;;;22.51;50.45;102330.91;4965289;28;46580;-96
2022/05/13 11:15:22;;;;;;;;;9.00;8.20;;;;;22.50;50.27;102334.59;4959937;28;45483;-94
2022/05/13 11:17:53;;;;;;;;;6.40;3.80;;;;;22.50;50.01;102329.19;4963240;28;46125;-94
2022/05/13 11:20:45;;;;;;;;;6.00;4.60;;;;;22.19;50.67;102270.75;4985856;28;45409;-96
2022/05/13 11:23:32;;;;;;;;;9.20;6.40;;;;;22.56;50.33;102323.22;4961076;28;47472;-94
2022/05/13 11:26:15;;;;;;;;;8.60;7.80;;;;;21.75;50.96;102191.81;4988396;28;45597;-94
2022/05/13 11:28:41;;;;;;;;;11.40;9.20;;;;;22.47;51.10;102280.81;4997908;28;45299;-94
2022/05/13 11:31:07;;;;;;;;;5.25;5.00;;;;;22.64;50.30;102308.97;5018859;28;45549;-93
2022/05/13 11:33:50;;;;;;;;;4.00;4.00;;;;;22.65;50.26;102304.41;5007413;28;47133;-95
2022/05/13 11:36:19;;;;;;;;;9.80;7.20;;;;;22.68;50.11;102298.72;5025441;28;45335;-94
2022/05/13 11:39:10;;;;;;;;;10.00;9.00;;;;;22.69;50.33;102290.44;5028225;28;45488;-93
2022/05/13 11:42:12;;;;;;;;;6.20;5.20;;;;;22.73;50.37;102291.03;5000525;28;45533;-94
2022/05/13 11:45:09;;;;;;;;;8.80;6.60;;;;;22.78;50.67;102298.69;5018909;28;47008;-93
2022/05/13 11:47:58;;;;;;;;;8.60;5.00;;;;;22.81;50.55;102304.69;5025891;28;45361;-94
2022/05/13 11:50:27;;;;;;;;;7.60;5.40;;;;;22.64;50.17;102268.38;5017459;28;45502;-94
2022/05/13 11:52:53;;;;;;;;;6.20;6.20;;;;;22.36;50.63;102225.91;4979626;28;45579;-94
2022/05/13 11:55:45;;;;;;;;;4.80;4.80;;;;;22.90;50.17;102302.09;4968241;28;47373;-94
2022/05/13 11:58:49;;;;;;;;;4.60;4.60;;;;;22.93;50.03;102301.78;5017359;28;45512;-94
2022/05/13 12:01:34;;;;;;;;;7.20;4.60;;;;;22.97;50.35;102302.34;5014733;28;45462;-93
2022/05/13 12:04:27;;;;;;;;;3.00;3.00;;;;;22.58;49.92;102237.38;4992868;28;45515;-94
2022/05/13 12:06:52;;;;;;;;;5.80;4.20;;;;;23.01;49.43;102315.44;4978100;28;45862;-92
2022/05/13 12:09:42;;;;;;;;;4.50;4.50;;;;;23.01;49.41;102299.19;4997976;28;45315;-93
2022/05/13 12:12:20;;;;;;;;;5.60;5.60;;;;;23.05;50.00;102306.03;4997142;28;45465;-93
2022/05/13 12:15:03;;;;;;;;;4.20;3.80;;;;;22.54;49.52;102233.28;4993823;28;45213;-93
2022/05/13 12:17:44;;;;;;;;;2.60;2.60;;;;;22.94;49.74;102276.44;4981481;28;47321;-93
2022/05/13 12:20:19;;;;;;;;;2.40;2.40;;;;;23.13;49.60;102296.28;4971644;28;45836;-93
2022/05/13 12:23:03;;;;;;;;;6.80;5.00;;;;;22.28;49.73;102163.63;5011202;28;44806;-93
2022/05/13 12:25:29;;;;;;;;;5.00;4.00;;;;;23.18;49.59;102294.00;4998928;28;44800;-93
2022/05/13 12:28:21;;;;;;;;;5.00;5.00;;;;;23.05;49.39;102262.72;5028023;28;46763;-93
2022/05/13 12:30:50;;;;;;;;;4.60;4.60;;;;;23.04;49.21;102254.75;4991997;28;45666;-93
2022/05/13 12:33:38;;;;;;;;;4.00;4.00;;;;;22.26;49.11;102116.97;4965057;28;45487;-94
2022/05/13 12:39:19;;;;;;;;;3.20;3.00;;;;;23.28;49.52;102266.88;4983074;28;45495;-94
2022/05/13 12:41:55;;;;;;;;;4.80;3.00;;;;;23.29;49.51;102269.44;4976541;28;45414;-94
2022/05/13 12:44:35;;;;;;;;;6.00;4.00;;;;;23.10;49.76;102231.63;4980682;28;45382;-93
2022/05/13 12:47:12;;;;;;;;;6.00;4.00;;;;;23.34;49.84;102260.00;4962889;28;45383;-94
2022/05/13 12:49:56;;;;;;;;;6.00;4.00;;;;;22.84;49.77;102174.53;4999219;28;47137;-95
2022/05/13 12:52:33;;;;;;;;;3.40;3.40;;;;;22.76;49.97;102152.78;4970149;28;45484;-95
2022/05/13 12:55:17;;;;;;;;;4.80;4.20;;;;;23.36;49.48;102236.34;4979904;28;45429;-92
2022/05/13 12:57:54;;;;;;;;;3.20;3.20;;;;;22.50;49.58;102097.50;5010571;28;45188;-94
2022/05/13 13:00:42;;;;;;;;;4.00;4.00;;;;;22.62;49.14;102103.56;4997501;28;47956;-93
2022/05/13 13:03:09;;;;;;;;;3.00;3.00;;;;;22.79;49.43;102127.28;5004800;28;45479;-94
2022/05/13 13:05:36;;;;;;;;;6.20;5.20;;;;;23.16;49.66;102176.91;4986410;28;45414;-93
2022/05/13 13:08:15;;;;;;;;;4.80;4.80;;;;;23.05;49.70;102156.31;4988191;28;45308;-94
2022/05/13 13:11:05;;;;;;;;;4.20;4.20;;;;;23.09;49.58;102162.28;4976011;28;48383;-93
2022/05/13 13:13:36;;;;;;;;;3.00;3.00;;;;;23.62;49.08;102232.91;4987150;28;45527;-92
2022/05/13 13:16:36;;;;;;;;;7.00;5.40;;;;;23.12;49.28;102151.16;4999766;28;45873;-93
2022/05/13 13:19:24;;;;;;;;;3.40;3.40;;;;;23.66;49.87;102238.88;4967443;28;45538;-93
2022/05/13 13:21:57;;;;;;;;;3.40;3.40;;;;;23.20;49.82;102151.25;4980399;28;47398;-94
2022/05/13 13:24:31;;;;;;;;;6.80;3.20;;;;;23.00;49.48;102113.50;4977997;28;45443;-93
2022/05/13 13:26:56;;;;;;;;;4.80;3.00;;;;;23.03;49.32;102113.19;4986140;28;45371;-92
2022/05/13 13:29:28;;;;;;;;;6.00;5.00;;;;;22.97;49.29;102099.41;4975713;28;45499;-92
2022/05/13 13:44:11;;;;;;;;;4.00;2.60;;;;;23.86;49.04;102204.34;5505838;23;45361;-93
2022/05/13 13:47:14;;;;;;;;;4.00;4.00;;;;;23.89;49.13;102206.75;5012104;28;45371;-92
2022/05/13 13:49:43;;;;;;;;;5.40;5.40;;;;;23.49;49.67;102136.59;4998811;28;45541;-92
2022/05/13 13:52:20;;;;;;;;;5.20;4.40;;;;;23.56;49.68;102144.16;4996501;28;45483;-91
2022/05/13 13:54:51;;;;;;;;;3.40;3.00;;;;;23.70;49.04;102151.72;4997538;28;46146;-89
2022/05/13 13:57:54;;;;;;;;;4.00;3.80;;;;;23.99;49.29;102181.41;4981676;28;45827;-91
2022/05/13 14:00:28;;;;;;;;;4.60;3.00;;;;;23.48;49.74;102107.00;5034215;28;45343;-91
2022/05/13 14:03:12;;;;;;;;;8.00;5.00;;;;;23.28;49.52;102078.25;5001349;28;44898;-92
2022/05/13 14:06:03;;;;;;;;;4.00;4.00;;;;;23.56;49.70;102108.94;5000699;28;46886;-91
2022/05/13 14:08:31;;;;;;;;;5.40;4.60;;;;;23.71;49.63;102120.06;5004214;28;45403;-92
2022/05/13 14:11:06;;;;;;;;;6.20;6.20;;;;;23.80;49.69;102129.13;4983621;28;45430;-94
2022/05/13 14:13:38;;;;;;;;;5.00;5.00;;;;;24.05;49.18;102164.50;4998597;28;45779;-89
2022/05/13 14:16:27;;;;;;;;;6.40;6.40;;;;;23.64;49.29;102102.75;5033172;28;46267;-92
2022/05/13 14:18:54;;;;;;;;;9.00;6.40;;;;;24.19;49.61;102181.19;5047870;28;44773;-90
2022/05/13 14:21:32;;;;;;;;;7.80;6.00;;;;;24.14;49.46;102173.53;5019496;28;44798;-91
2022/05/13 14:24:11;;;;;;;;;6.60;6.20;;;;;24.01;49.43;102152.31;4993639;28;45544;-90
2022/05/13 14:26:55;;;;;;;;;4.75;4.75;;;;;24.01;49.29;102128.72;5007235;28;45627;-90
2022/05/13 14:29:22;;;;;;;;;5.00;5.00;;;;;23.89;49.58;102106.50;4979907;28;45909;-91
2022/05/13 14:31:52;;;;;;;;;6.00;6.00;;;;;23.49;49.26;102025.59;4981178;28;45557;-89
2022/05/13 14:34:20;;;;;;;;;5.40;5.00;;;;;23.85;49.11;102078.00;4997989;28;45481;-91
2022/05/13 14:36:48;;;;;;;;;5.40;4.40;;;;;23.66;49.65;102052.84;4998065;28;47624;-91
2022/05/13 14:42:17;;;;;;;;;7.00;4.60;;;;;24.14;49.54;102117.47;5006394;28;45501;-94
2022/05/13 14:44:45;;;;;;;;;3.40;3.40;;;;;24.00;49.96;102090.97;5011968;28;45481;-92
2022/05/13 14:47:39;;;;;;;;;4.80;4.20;;;;;24.39;49.70;102143.91;5013824;28;47149;-92
2022/05/13 14:50:10;;;;;;;;;4.80;4.00;;;;;24.42;49.37;102146.28;5024292;28;45644;-92
2022/05/13 14:52:53;;;;;;;;;5.80;4.20;;;;;23.57;49.17;102015.88;5025986;28;45471;-91
2022/05/13 14:55:38;;;;;;;;;4.80;4.60;;;;;23.92;49.64;102056.53;4983354;28;45705;-90
2022/05/13 14:58:25;;;;;;;;;7.40;5.60;;;;;24.48;49.78;102151.06;4993971;28;48506;-90
2022/05/13 15:00:52;;;;;;;;;6.40;5.20;;;;;24.37;49.27;102133.22;5015776;28;45481;-94
2022/05/13 15:03:25;;;;;;;;;8.60;5.40;;;;;24.03;49.92;102068.97;4983814;28;45360;-90
